Time;durP1;ratioP1;P1;durP2;ratioP2;P2;SDS_P1;SDS_P2;PMS_P1;PMS_P2;Temp;Humidity;BMP_temperature;BMP_pressure;BME280_temperature;BME280_humidity;BME280_pressure;Samples;Min_cycle;Max_cycle;Signal;HPM_P1;HPM_P2
2023/06/04 00:00:26;;;;;;;3.92;2.08;;;11.50;99.90;;;;;;5033014;28;20025;-66
2023/06/04 00:02:51;;;;;;;2.97;2.05;;;11.60;99.90;;;;;;5033255;28;20072;-66
2023/06/04 00:05:17;;;;;;;4.35;2.38;;;11.60;99.90;;;;;;5032898;28;20033;-66
2023/06/04 00:07:43;;;;;;;2.60;2.00;;;11.50;99.90;;;;;;5032893;28;20029;-66
2023/06/04 00:10:09;;;;;;;4.43;2.15;;;11.50;99.90;;;;;;5032754;28;20033;-66
2023/06/04 00:12:35;;;;;;;3.08;2.35;;;11.40;99.90;;;;;;5033173;28;20087;-66
2023/06/04 00:15:01;;;;;;;3.85;2.00;;;11.30;1.00;;;;;;5033202;28;20087;-66
2023/06/04 00:17:27;;;;;;;2.75;2.33;;;11.10;99.90;;;;;;5031589;28;20421;-66
2023/06/04 00:19:52;;;;;;;3.42;2.38;;;11.00;99.90;;;;;;5032768;28;20399;-66
2023/06/04 00:22:18;;;;;;;2.97;2.03;;;11.00;99.90;;;;;;5032905;28;20453;-66
2023/06/04 00:24:43;;;;;;;5.43;2.30;;;11.00;99.90;;;;;;5032799;28;20100;-66
2023/06/04 00:27:09;;;;;;;3.22;2.40;;;11.00;99.90;;;;;;5032801;28;20438;-66
2023/06/04 00:29:35;;;;;;;3.92;2.45;;;10.90;1.00;;;;;;5033048;28;20475;-66
2023/06/04 00:32:02;;;;;;;3.53;2.10;;;10.90;1.00;;;;;;5033127;28;20479;-66
2023/06/04 00:34:27;;;;;;;4.68;2.40;;;11.10;1.00;;;;;;5031620;28;20075;-66
2023/06/04 00:36:53;;;;;;;2.85;2.25;;;11.10;1.00;;;;;;5032376;28;20033;-66
2023/06/04 00:39:18;;;;;;;5.65;2.55;;;11.10;44.60;;;;;;5032449;28;20510;-66
2023/06/04 00:41:44;;;;;;;2.88;2.30;;;11.20;1.00;;;;;;5032727;28;20025;-66
2023/06/04 00:44:11;;;;;;;4.70;2.17;;;11.20;10.10;;;;;;5032631;28;20068;-66
2023/06/04 00:46:37;;;;;;;3.65;2.22;;;11.30;73.40;;;;;;5033746;28;20017;-66
2023/06/04 00:49:05;;;;;;;4.03;2.22;;;11.30;99.90;;;;;;5035935;28;20124;-66
2023/06/04 00:51:31;;;;;;;4.72;2.20;;;11.20;99.90;;;;;;5036042;28;20175;-66
2023/06/04 00:53:58;;;;;;;4.50;2.30;;;11.30;99.90;;;;;;5035995;28;20025;-67
2023/06/04 00:56:24;;;;;;;2.50;2.10;;;11.20;99.90;;;;;;5036018;28;20491;-66
2023/06/04 00:58:51;;;;;;;3.90;2.22;;;11.20;1.00;;;;;;5035933;28;20029;-66
2023/06/04 01:01:34;;;;;;;3.80;2.60;;;11.20;1.00;;;;;;5036004;28;20072;-66
2023/06/04 01:04:02;;;;;;;5.87;2.60;;;11.10;45.90;;;;;;5036183;28;20048;-66
2023/06/04 01:06:38;;;;;;;3.35;2.47;;;11.10;99.90;;;;;;5036151;28;20060;-67
2023/06/04 01:09:05;;;;;;;7.50;2.50;;;11.10;1.00;;;;;;5034749;28;20060;-67
2023/06/04 01:11:35;;;;;;;3.08;2.30;;;11.10;1.00;;;;;;5036115;28;20057;-66
2023/06/04 01:14:02;;;;;;;8.20;2.72;;;11.00;1.00;;;;;;5034656;28;20391;-66
2023/06/04 01:16:34;;;;;;;4.15;2.40;;;11.00;99.90;;;;;;5035683;28;20036;-66
2023/06/04 01:19:03;;;;;;;6.53;2.30;;;11.00;99.90;;;;;;5035595;28;20404;-66
2023/06/04 01:21:31;;;;;;;5.78;2.42;;;11.00;1.00;;;;;;5035878;28;20033;-67
2023/06/04 01:24:01;;;;;;;2.95;2.42;;;10.90;1.00;;;;;;5034295;28;20025;-66
2023/06/04 01:26:29;;;;;;;5.47;2.30;;;10.90;99.90;;;;;;5035782;28;20021;-66
2023/06/04 01:28:56;;;;;;;4.35;2.30;;;10.90;99.90;;;;;;5035238;28;20033;-66
2023/06/04 01:31:23;;;;;;;5.82;2.60;;;10.90;1.00;;;;;;5035277;28;20475;-66
2023/06/04 01:33:57;;;;;;;4.05;2.40;;;10.80;1.00;;;;;;5035339;28;20399;-66
2023/06/04 01:36:23;;;;;;;4.97;2.53;;;10.80;99.90;;;;;;5035198;28;20084;-66
2023/06/04 01:38:49;;;;;;;2.30;2.10;;;10.70;99.90;;;;;;5035103;28;20053;-66
2023/06/04 01:41:15;;;;;;;7.90;2.20;;;10.70;1.00;;;;;;5035461;28;20037;-66
2023/06/04 01:43:40;;;;;;;9.60;2.95;;;10.70;1.00;;;;;;5035190;28;20029;-66
2023/06/04 01:46:06;;;;;;;4.63;2.22;;;10.60;99.90;;;;;;5035273;28;20104;-66
2023/06/04 01:48:31;;;;;;;4.70;2.50;;;10.50;99.90;;;;;;5035186;28;20028;-66
2023/06/04 01:50:57;;;;;;;3.92;2.40;;;10.40;1.00;;;;;;5035275;28;20056;-66
2023/06/04 01:53:23;;;;;;;4.43;2.58;;;10.30;73.10;;;;;;5035291;28;20541;-67
2023/06/04 01:55:50;;;;;;;5.70;2.70;;;10.20;99.90;;;;;;5034814;28;20033;-66
2023/06/04 01:58:22;;;;;;;3.22;2.42;;;10.00;1.00;;;;;;5034911;28;20079;-67
2023/06/04 02:00:49;;;;;;;5.18;2.58;;;9.90;1.00;;;;;;5034849;28;20042;-66
2023/06/04 02:03:16;;;;;;;4.45;2.13;;;9.80;99.90;;;;;;5035078;28;20107;-66
2023/06/04 02:05:44;;;;;;;6.03;3.00;;;9.70;1.00;;;;;;5034699;28;20480;-66
2023/06/04 02:08:11;;;;;;;4.70;2.20;;;9.50;1.00;;;;;;5034973;28;20037;-66
2023/06/04 02:10:36;;;;;;;3.97;2.65;;;9.40;46.70;;;;;;5034712;28;20049;-66
2023/06/04 02:13:03;;;;;;;3.50;2.28;;;9.30;99.90;;;;;;5034499;28;20056;-66
2023/06/04 02:15:31;;;;;;;3.78;2.10;;;9.20;99.90;;;;;;5034792;28;20372;-66
2023/06/04 02:17:59;;;;;;;5.68;2.20;;;9.10;99.90;;;;;;5033793;28;20033;-66
2023/06/04 02:20:26;;;;;;;3.47;2.03;;;9.00;99.90;;;;;;5034510;28;20029;-66
2023/06/04 02:22:54;;;;;;;5.07;2.40;;;8.90;99.90;;;;;;5034344;28;20017;-66
2023/06/04 02:25:20;;;;;;;3.15;2.30;;;8.80;99.90;;;;;;5033450;28;20543;-66
2023/06/04 02:27:46;;;;;;;3.30;2.05;;;8.70;99.90;;;;;;5034334;28;20061;-66
2023/06/04 02:30:11;;;;;;;2.50;2.30;;;8.70;99.90;;;;;;5034537;28;20063;-66
2023/06/04 02:32:37;;;;;;;2.63;2.17;;;8.60;1.00;;;;;;5034493;28;20480;-66
2023/06/04 02:35:03;;;;;;;3.38;2.28;;;8.60;1.00;;;;;;5034207;28;20080;-66
2023/06/04 02:37:30;;;;;;;3.58;2.47;;;8.50;1.00;;;;;;5034184;28;20037;-66
2023/06/04 02:39:55;;;;;;;3.67;2.67;;;8.50;1.00;;;;;;5033703;28;20521;-66
2023/06/04 02:42:21;;;;;;;5.88;2.40;;;8.40;1.00;;;;;;5034051;28;20100;-66
2023/06/04 02:44:47;;;;;;;3.03;2.42;;;8.40;1.00;;;;;;5034052;28;20037;-66
2023/06/04 02:47:12;;;;;;;4.90;2.47;;;8.30;1.00;;;;;;5034111;28;20033;-66
2023/06/04 02:49:38;;;;;;;3.80;2.35;;;8.30;1.00;;;;;;5034095;28;20090;-66
2023/06/04 02:52:04;;;;;;;3.22;2.70;;;8.20;1.00;;;;;;5033960;28;20030;-66
2023/06/04 02:54:30;;;;;;;4.22;2.33;;;8.20;1.00;;;;;;5033886;28;20152;-66
2023/06/04 02:56:56;;;;;;;5.13;2.78;;;8.20;1.00;;;;;;5034041;28;20083;-66
2023/06/04 02:59:22;;;;;;;4.53;2.65;;;8.10;1.00;;;;;;5033714;28;20037;-66
2023/06/04 03:01:48;;;;;;;3.88;2.50;;;8.10;1.00;;;;;;5033918;28;20036;-66
2023/06/04 03:04:15;;;;;;;3.08;2.33;;;8.10;1.00;;;;;;5033970;28;20475;-66
2023/06/04 03:06:44;;;;;;;3.50;2.65;;;8.00;1.00;;;;;;5033671;28;20028;-66
2023/06/04 03:09:10;;;;;;;4.22;2.55;;;7.90;1.00;;;;;;5033161;28;20083;-66
2023/06/04 03:11:36;;;;;;;3.40;2.35;;;7.90;1.00;;;;;;5033646;28;20479;-65
2023/06/04 03:14:02;;;;;;;3.95;2.60;;;7.80;1.00;;;;;;5033657;28;20109;-66
2023/06/04 03:16:28;;;;;;;4.20;2.80;;;7.80;1.00;;;;;;5032638;28;20029;-66
2023/06/04 03:18:53;;;;;;;4.13;3.00;;;7.90;1.00;;;;;;5033678;28;20029;-65
2023/06/04 03:21:19;;;;;;;5.30;2.60;;;7.90;1.00;;;;;;5033478;28;20101;-66
2023/06/04 03:23:45;;;;;;;8.77;3.30;;;7.90;1.00;;;;;;5033406;28;20051;-65
2023/06/04 03:26:12;;;;;;;7.80;3.10;;;7.90;1.00;;;;;;5033451;28;20072;-66
2023/06/04 03:28:38;;;;;;;3.35;2.60;;;8.00;1.00;;;;;;5033282;28;20027;-66
2023/06/04 03:31:04;;;;;;;4.20;2.80;;;8.00;1.00;;;;;;5033420;28;20526;-66
2023/06/04 03:33:33;;;;;;;5.28;3.03;;;8.00;1.00;;;;;;5033289;28;20503;-66
2023/06/04 03:36:02;;;;;;;3.63;2.58;;;8.00;1.00;;;;;;5033479;28;20506;-66
2023/06/04 03:38:28;;;;;;;3.92;2.83;;;8.00;1.00;;;;;;5032721;28;20033;-65
2023/06/04 03:40:54;;;;;;;2.70;2.47;;;8.00;1.00;;;;;;5033112;28;20621;-65
2023/06/04 03:43:21;;;;;;;4.65;3.08;;;8.00;1.00;;;;;;5033112;28;20025;-65
2023/06/04 03:45:47;;;;;;;4.45;2.63;;;8.00;1.00;;;;;;5033117;28;20088;-65
2023/06/04 03:48:12;;;;;;;4.63;2.95;;;8.10;1.00;;;;;;5033332;28;20407;-65
2023/06/04 03:50:38;;;;;;;4.05;2.92;;;8.10;1.00;;;;;;5032717;28;20022;-66
2023/06/04 03:53:05;;;;;;;3.22;2.33;;;8.10;1.00;;;;;;5033141;28;20061;-66
2023/06/04 03:55:32;;;;;;;8.10;3.13;;;8.10;2.30;;;;;;5033280;28;20025;-66
2023/06/04 03:57:58;;;;;;;5.10;2.90;;;8.10;2.50;;;;;;5032871;28;20034;-65
2023/06/04 04:00:24;;;;;;;8.27;3.67;;;8.20;4.10;;;;;;5032823;28;20034;-65
2023/06/04 04:02:50;;;;;;;5.10;3.05;;;8.20;6.50;;;;;;5031854;28;20034;-65
2023/06/04 04:05:16;;;;;;;6.03;3.40;;;8.30;8.00;;;;;;5032863;28;20025;-66
2023/06/04 04:07:41;;;;;;;3.55;2.88;;;8.30;11.80;;;;;;5032975;28;20018;-66
2023/06/04 04:10:08;;;;;;;5.38;2.92;;;8.40;11.70;;;;;;5033210;28;20163;-66
2023/06/04 04:12:36;;;;;;;3.85;2.63;;;8.40;9.80;;;;;;5033165;28;20034;-66
2023/06/04 04:15:02;;;;;;;3.55;2.50;;;8.50;9.30;;;;;;5033027;28;20398;-65
2023/06/04 04:17:27;;;;;;;3.35;2.58;;;8.60;8.80;;;;;;5033211;28;20033;-66
2023/06/04 04:19:53;;;;;;;3.83;2.88;;;8.70;7.80;;;;;;5032784;28;20053;-65
2023/06/04 04:22:19;;;;;;;3.70;2.85;;;8.70;4.10;;;;;;5033913;28;20521;-66
2023/06/04 04:24:44;;;;;;;3.47;3.08;;;8.90;3.40;;;;;;5036383;28;20108;-66
2023/06/04 04:27:11;;;;;;;5.43;2.88;;;9.20;8.10;;;;;;5036672;28;20036;-66
2023/06/04 04:29:38;;;;;;;5.03;2.70;;;9.60;6.70;;;;;;5036581;28;20142;-66
2023/06/04 04:32:10;;;;;;;3.92;2.90;;;10.00;1.00;;;;;;5035579;28;20037;-66
2023/06/04 04:34:37;;;;;;;5.03;2.60;;;10.30;1.00;;;;;;5036605;28;20044;-66
2023/06/04 04:37:03;;;;;;;3.80;2.30;;;11.20;1.00;;;;;;5034965;28;20026;-66
2023/06/04 04:39:29;;;;;;;4.97;2.35;;;12.90;1.00;;;;;;5036021;28;20100;-66
2023/06/04 04:41:55;;;;;;;4.63;2.42;;;14.60;1.00;;;;;;5036761;28;20033;-67
2023/06/04 04:44:20;;;;;;;7.50;2.33;;;16.00;1.00;;;;;;5036310;28;20022;-67
2023/06/04 04:46:47;;;;;;;3.53;2.13;;;17.00;99.90;;;;;;5036289;28;20021;-67
2023/06/04 04:49:13;;;;;;;2.75;2.00;;;17.40;1.00;;;;;;5035114;28;20483;-67
2023/06/04 04:51:39;;;;;;;2.85;2.10;;;17.80;1.00;;;;;;5035978;28;20120;-67
2023/06/04 04:54:04;;;;;;;3.70;2.00;;;18.40;99.90;;;;;;5036225;28;20116;-67
2023/06/04 04:56:34;;;;;;;3.50;2.10;;;19.00;99.90;;;;;;5036022;28;20049;-67
2023/06/04 04:58:59;;;;;;;4.53;2.10;;;18.70;95.60;;;;;;5018771;28;20029;-67
2023/06/04 05:01:25;;;;;;;3.75;2.28;;;18.50;91.70;;;;;;5036336;28;20034;-67
2023/06/04 05:03:51;;;;;;;8.32;2.15;;;18.60;34.30;;;;;;5036198;28;20100;-67
2023/06/04 05:06:17;;;;;;;2.67;1.75;;;17.80;46.10;;;;;;5034767;28;20033;-67
2023/06/04 05:08:43;;;;;;;3.42;1.77;;;18.60;55.80;;;;;;5036144;28;20018;-67
2023/06/04 05:11:09;;;;;;;2.42;2.00;;;18.30;23.80;;;;;;5035874;28;20052;-67
2023/06/04 05:13:36;;;;;;;2.95;2.25;;;18.50;11.40;;;;;;5035795;28;20033;-67
2023/06/04 05:16:06;;;;;;;4.35;2.58;;;17.90;20.10;;;;;;5034777;28;20037;-67
2023/06/04 05:18:32;;;;;;;2.70;1.90;;;17.80;26.80;;;;;;5035822;28;20025;-67
2023/06/04 05:21:00;;;;;;;2.83;2.28;;;18.00;50.60;;;;;;5035470;28;20026;-67
2023/06/04 05:23:27;;;;;;;3.15;1.98;;;18.20;18.10;;;;;;5035847;28;20018;-67
2023/06/04 05:25:52;;;;;;;2.95;1.88;;;18.70;17.30;;;;;;5035555;28;20024;-67
2023/06/04 05:28:18;;;;;;;4.65;1.98;;;19.70;1.00;;;;;;5035774;28;20029;-67
2023/06/04 05:30:44;;;;;;;3.38;2.50;;;20.30;1.00;;;;;;5035747;28;20022;-67
2023/06/04 05:33:17;;;;;;;3.55;2.30;;;19.70;1.00;;;;;;5035400;28;20025;-65
2023/06/04 05:35:45;;;;;;;3.25;2.00;;;19.70;1.00;;;;;;5035282;28;20116;-68
2023/06/04 05:38:17;;;;;;;2.97;2.20;;;20.50;1.00;;;;;;5033942;28;20095;-67
2023/06/04 05:40:43;;;;;;;3.00;1.88;;;21.80;1.00;;;;;;5035197;28;20376;-68
2023/06/04 05:43:08;;;;;;;2.60;2.08;;;21.50;1.00;;;;;;5035179;28;20025;-65
2023/06/04 05:45:35;;;;;;;6.47;2.42;;;21.70;99.90;;;;;;5035170;28;20025;-68
2023/06/04 05:48:00;;;;;;;3.67;2.00;;;21.40;99.90;;;;;;5035488;28;20422;-65
2023/06/04 05:50:27;;;;;;;5.30;2.30;;;20.90;99.90;;;;;;5035477;28;20021;-65
2023/06/04 05:52:53;;;;;;;4.32;2.17;;;21.00;99.90;;;;;;5035365;28;20033;-65
2023/06/04 05:55:19;;;;;;;4.25;1.90;;;21.70;99.90;;;;;;5035350;28;20036;-66
2023/06/04 05:57:45;;;;;;;2.58;1.83;;;22.80;99.90;;;;;;5034973;28;20037;-66
2023/06/04 06:00:12;;;;;;;3.33;1.90;;;22.80;99.90;;;;;;5034898;28;20080;-66
2023/06/04 06:02:38;;;;;;;2.30;2.10;;;22.90;99.90;;;;;;5035176;28;20479;-66
2023/06/04 06:05:08;;;;;;;5.28;2.13;;;22.80;99.90;;;;;;5034776;28;20025;-66
2023/06/04 06:07:33;;;;;;;3.42;1.92;;;23.60;99.90;;;;;;5033482;28;20025;-66
2023/06/04 06:10:00;;;;;;;2.97;2.33;;;23.10;99.90;;;;;;5034990;28;20078;-66
2023/06/04 06:12:25;;;;;;;2.40;2.08;;;23.30;99.90;;;;;;5034847;28;20025;-66
2023/06/04 06:14:51;;;;;;;4.00;2.35;;;23.60;99.90;;;;;;5034928;28;20021;-66
2023/06/04 06:17:16;;;;;;;3.25;1.88;;;23.20;99.90;;;;;;5034644;28;20036;-66
2023/06/04 06:19:42;;;;;;;3.50;2.05;;;23.50;99.90;;;;;;5034719;28;20033;-66
2023/06/04 06:22:08;;;;;;;6.10;2.22;;;22.90;99.90;;;;;;5034647;28;20053;-66
2023/06/04 06:24:33;;;;;;;3.38;2.55;;;24.30;99.90;;;;;;5034549;28;20018;-66
2023/06/04 06:26:59;;;;;;;2.80;2.30;;;24.20;99.90;;;;;;5034678;28;20053;-66
2023/06/04 06:29:25;;;;;;;5.53;2.28;;;23.60;99.90;;;;;;5034507;28;20415;-66
2023/06/04 06:31:51;;;;;;;3.25;2.30;;;24.00;99.90;;;;;;5034470;28;20018;-66
2023/06/04 06:34:17;;;;;;;3.55;2.50;;;24.90;99.90;;;;;;5034352;28;20483;-66
2023/06/04 06:36:44;;;;;;;4.07;2.28;;;25.20;99.90;;;;;;5034320;28;20036;-66
2023/06/04 06:39:10;;;;;;;4.90;2.13;;;24.40;99.90;;;;;;5034121;28;20049;-66
2023/06/04 06:41:38;;;;;;;3.00;2.67;;;24.30;99.90;;;;;;5034247;28;20029;-66
2023/06/04 06:44:04;;;;;;;4.47;2.03;;;24.50;99.90;;;;;;5033479;28;20100;-66
2023/06/04 06:46:30;;;;;;;2.33;1.90;;;25.20;99.90;;;;;;5034397;28;20055;-66
2023/06/04 06:48:57;;;;;;;3.00;2.17;;;25.20;99.90;;;;;;5034195;28;20536;-66
2023/06/04 06:51:22;;;;;;;3.20;1.95;;;25.80;99.90;;;;;;5034111;28;20025;-66
2023/06/04 06:53:50;;;;;;;3.70;2.42;;;25.30;99.90;;;;;;5034000;28;20097;-66
2023/06/04 06:56:17;;;;;;;3.97;2.10;;;24.80;99.90;;;;;;5033880;28;20029;-67
2023/06/04 06:58:44;;;;;;;2.40;2.10;;;24.90;99.90;;;;;;5032908;28;20510;-66
2023/06/04 07:01:13;;;;;;;4.55;2.08;;;26.40;99.90;;;;;;5033937;28;20400;-66
2023/06/04 07:03:39;;;;;;;3.20;2.15;;;26.00;99.90;;;;;;5032686;28;20132;-66
2023/06/04 07:06:06;;;;;;;3.53;2.50;;;25.40;99.90;;;;;;5032325;28;20116;-66
2023/06/04 07:08:32;;;;;;;4.13;2.30;;;25.50;99.90;;;;;;5033698;28;20021;-66
2023/06/04 07:10:59;;;;;;;4.78;2.10;;;27.30;99.90;;;;;;5032800;28;20026;-66
2023/06/04 07:13:25;;;;;;;4.93;2.10;;;26.90;99.90;;;;;;5033917;28;20037;-66
2023/06/04 07:15:50;;;;;;;3.15;2.28;;;27.00;99.90;;;;;;5033621;28;20036;-66
2023/06/04 07:18:16;;;;;;;2.50;2.20;;;26.60;99.90;;;;;;5033623;28;20108;-66
2023/06/04 07:20:44;;;;;;;4.28;2.30;;;26.30;99.90;;;;;;5033697;28;20459;-66
2023/06/04 07:23:10;;;;;;;3.33;2.15;;;25.30;99.90;;;;;;5033726;28;20096;-66
2023/06/04 07:25:36;;;;;;;2.35;2.15;;;25.40;99.90;;;;;;5033509;28;20440;-67
2023/06/04 07:28:03;;;;;;;3.45;2.20;;;26.20;99.90;;;;;;5033343;28;20021;-66
2023/06/04 07:30:31;;;;;;;4.35;2.15;;;27.50;99.90;;;;;;5033804;28;20084;-67
2023/06/04 07:32:57;;;;;;;3.75;2.35;;;28.00;99.90;;;;;;5032386;28;20372;-66
2023/06/04 07:35:23;;;;;;;3.10;2.38;;;27.20;99.90;;;;;;5033347;28;20083;-66
2023/06/04 07:37:50;;;;;;;4.53;2.45;;;26.50;99.90;;;;;;5033289;28;20033;-66
2023/06/04 07:40:16;;;;;;;3.53;2.10;;;26.40;99.90;;;;;;5032949;28;20136;-66
2023/06/04 07:42:43;;;;;;;4.45;2.50;;;25.10;99.90;;;;;;5033551;28;20025;-67
2023/06/04 07:45:09;;;;;;;3.80;2.60;;;25.50;99.90;;;;;;5033269;28;20053;-67
2023/06/04 07:47:37;;;;;;;2.83;2.53;;;26.10;99.90;;;;;;5033324;28;20028;-66
2023/06/04 07:50:04;;;;;;;5.93;2.60;;;26.40;99.90;;;;;;5033175;28;20083;-67
2023/06/04 07:52:30;;;;;;;3.25;2.60;;;27.00;99.90;;;;;;5033394;28;20116;-67
2023/06/04 07:54:57;;;;;;;4.15;2.55;;;26.90;99.90;;;;;;5032884;28;20483;-66
2023/06/04 07:57:22;;;;;;;2.88;2.40;;;27.10;99.90;;;;;;5037340;28;20049;-67
2023/06/04 07:59:49;;;;;;;3.72;2.33;;;27.30;99.90;;;;;;5037030;28;20072;-66
2023/06/04 08:02:14;;;;;;;3.58;2.63;;;28.10;99.90;;;;;;5037156;28;20481;-66
2023/06/04 08:04:40;;;;;;;2.75;2.17;;;28.20;99.90;;;;;;5037362;28;20029;-67
2023/06/04 08:07:06;;;;;;;3.72;2.13;;;29.30;99.90;;;;;;5037345;28;20021;-66
2023/06/04 08:09:32;;;;;;;8.85;2.10;;;28.50;99.90;;;;;;5037203;28;20048;-67
2023/06/04 08:11:58;;;;;;;6.40;2.45;;;28.00;99.90;;;;;;5037329;28;20368;-67
2023/06/04 08:14:26;;;;;;;7.38;2.60;;;28.60;99.90;;;;;;5036954;28;20030;-66
2023/06/04 08:16:54;;;;;;;5.25;2.50;;;29.10;99.90;;;;;;5036684;28;20513;-67
2023/06/04 08:19:19;;;;;;;3.08;2.70;;;28.00;99.90;;;;;;5036622;28;20538;-67
2023/06/04 08:21:46;;;;;;;4.50;2.55;;;28.80;99.90;;;;;;5035928;28;20152;-67
2023/06/04 08:24:12;;;;;;;4.90;2.72;;;27.90;99.90;;;;;;5036531;28;20025;-67
2023/06/04 08:26:38;;;;;;;6.82;3.00;;;28.20;99.90;;;;;;5036449;28;20030;-67
2023/06/04 08:29:04;;;;;;;3.88;2.42;;;28.90;99.90;;;;;;5036691;28;20100;-67
2023/06/04 08:31:30;;;;;;;4.35;2.70;;;29.00;99.90;;;;;;5036461;28;20025;-67
2023/06/04 08:33:55;;;;;;;4.18;2.53;;;28.90;99.90;;;;;;5036850;28;20032;-67
2023/06/04 08:36:21;;;;;;;4.75;2.60;;;28.80;99.90;;;;;;5036533;28;20032;-66
2023/06/04 08:38:50;;;;;;;4.35;2.95;;;28.30;99.90;;;;;;5036330;28;20097;-67
2023/06/04 08:41:26;;;;;;;3.42;2.80;;;28.60;99.90;;;;;;5036436;28;20022;-67
2023/06/04 08:43:56;;;;;;;5.20;2.75;;;28.70;99.90;;;;;;5036355;28;20036;-67
2023/06/04 08:46:22;;;;;;;6.20;3.45;;;28.40;99.90;;;;;;5036323;28;20483;-67
2023/06/04 08:48:50;;;;;;;7.15;3.15;;;28.60;99.90;;;;;;5036524;28;20036;-67
2023/06/04 08:51:16;;;;;;;4.35;2.95;;;28.60;99.90;;;;;;5035320;28;20036;-66
2023/06/04 08:53:42;;;;;;;4.93;3.20;;;29.50;99.90;;;;;;5036192;28;20030;-66
2023/06/04 08:56:08;;;;;;;4.00;3.60;;;28.90;99.90;;;;;;5035173;28;20476;-66
2023/06/04 08:58:36;;;;;;;6.25;4.00;;;28.60;99.90;;;;;;5034996;28;20040;-66
2023/06/04 09:01:04;;;;;;;5.40;3.60;;;27.60;99.90;;;;;;5035926;28;20030;-66
2023/06/04 09:03:32;;;;;;;6.47;4.10;;;28.20;99.90;;;;;;5036159;28;20043;-66
2023/06/04 09:05:59;;;;;;;4.57;3.60;;;28.60;99.90;;;;;;5036170;28;20104;-67
2023/06/04 09:08:26;;;;;;;6.40;3.80;;;28.70;99.90;;;;;;5033881;28;20471;-66
2023/06/04 09:10:53;;;;;;;6.63;3.95;;;28.90;99.90;;;;;;5036141;28;20589;-66
2023/06/04 09:13:22;;;;;;;4.80;3.97;;;29.10;99.90;;;;;;5035921;28;20029;-67
2023/06/04 09:16:06;;;;;;;3.83;3.42;;;28.30;99.90;;;;;;5035828;28;20022;-66
2023/06/04 09:18:32;;;;;;;4.70;3.60;;;29.20;99.90;;;;;;5036043;28;20030;-66
2023/06/04 09:21:06;;;;;;;5.55;3.85;;;29.30;99.90;;;;;;5035760;28;20476;-66
2023/06/04 09:23:36;;;;;;;6.05;4.35;;;28.20;99.90;;;;;;5035435;28;20498;-66
2023/06/04 09:26:10;;;;;;;7.50;4.32;;;28.80;99.90;;;;;;5035667;28;20112;-67
2023/06/04 09:28:40;;;;;;;8.25;4.20;;;28.70;99.90;;;;;;5035668;28;20040;-66
2023/06/04 09:31:08;;;;;;;4.82;4.30;;;29.10;99.90;;;;;;5035631;28;20040;-66
2023/06/04 09:33:45;;;;;;;5.93;4.03;;;28.00;99.90;;;;;;5035448;28;20120;-66
2023/06/04 09:36:11;;;;;;;7.85;4.10;;;28.70;99.90;;;;;;5034516;28;20113;-66
2023/06/04 09:38:37;;;;;;;4.55;3.55;;;28.40;99.90;;;;;;5033887;28;20061;-66
2023/06/04 09:41:04;;;;;;;4.45;4.05;;;28.80;99.90;;;;;;5034915;28;20522;-67
2023/06/04 09:43:32;;;;;;;5.88;4.03;;;29.00;99.90;;;;;;5035522;28;20025;-67
2023/06/04 09:46:12;;;;;;;4.95;3.97;;;29.50;99.90;;;;;;5035285;28;20106;-66
2023/06/04 09:48:38;;;;;;;4.95;4.25;;;28.70;99.90;;;;;;5035249;28;20022;-67
2023/06/04 09:51:20;;;;;;;4.13;3.72;;;27.70;99.90;;;;;;5035191;28;20113;-66
2023/06/04 09:53:55;;;;;;;6.15;3.83;;;28.40;99.90;;;;;;5035446;28;20033;-66
2023/06/04 09:56:21;;;;;;;4.47;3.90;;;28.30;99.90;;;;;;5034086;28;20033;-66
2023/06/04 09:58:49;;;;;;;7.20;4.25;;;27.60;99.90;;;;;;5035323;28;20555;-66
2023/06/04 10:01:15;;;;;;;4.72;4.10;;;28.20;99.90;;;;;;5034674;28;20112;-66
2023/06/04 10:03:48;;;;;;;7.63;4.18;;;29.40;99.90;;;;;;5034830;28;20523;-66
2023/06/04 10:06:16;;;;;;;6.53;3.95;;;28.90;99.90;;;;;;5034883;28;20029;-66
2023/06/04 10:08:43;;;;;;;6.30;3.75;;;28.60;99.90;;;;;;5034764;28;20476;-67
2023/06/04 10:11:10;;;;;;;5.72;3.97;;;28.10;99.90;;;;;;5034780;28;20380;-67
2023/06/04 10:13:47;;;;;;;6.38;3.60;;;28.00;99.90;;;;;;5034876;28;20404;-66
2023/06/04 10:16:13;;;;;;;5.13;3.05;;;28.40;99.90;;;;;;5034683;28;20025;-67
2023/06/04 10:18:39;;;;;;;7.97;2.88;;;27.70;99.90;;;;;;5034097;28;20033;-67
2023/06/04 10:21:08;;;;;;;5.40;3.00;;;27.70;99.90;;;;;;5034273;28;20057;-67
2023/06/04 10:23:34;;;;;;;7.35;2.95;;;28.30;99.90;;;;;;5034672;28;20033;-67
2023/06/04 10:26:01;;;;;;;5.65;2.35;;;28.20;99.90;;;;;;5034736;28;20030;-67
2023/06/04 10:28:26;;;;;;;4.90;2.13;;;28.30;99.90;;;;;;5034667;28;20513;-66
2023/06/04 10:30:52;;;;;;;5.80;2.35;;;28.10;99.90;;;;;;5034220;28;20025;-66
2023/06/04 10:33:20;;;;;;;5.60;2.50;;;28.90;99.90;;;;;;5034607;28;20017;-66
2023/06/04 10:35:46;;;;;;;3.25;2.08;;;27.70;99.90;;;;;;5033307;28;20113;-66
2023/06/04 10:38:14;;;;;;;5.65;2.40;;;27.70;99.90;;;;;;5034198;28;20418;-66
2023/06/04 10:40:40;;;;;;;4.97;2.20;;;27.50;99.90;;;;;;5034069;28;20032;-66
2023/06/04 10:43:11;;;;;;;3.78;2.20;;;27.30;99.90;;;;;;5034252;28;20487;-66
2023/06/04 10:45:37;;;;;;;4.30;2.20;;;27.10;99.90;;;;;;5033199;28;20053;-66
2023/06/04 10:48:04;;;;;;;5.70;2.40;;;27.30;99.90;;;;;;5033020;28;20064;-67
2023/06/04 10:50:33;;;;;;;4.47;2.45;;;27.00;99.90;;;;;;5034123;28;20086;-66
2023/06/04 10:53:03;;;;;;;3.72;2.60;;;26.80;99.90;;;;;;5034217;28;20036;-66
2023/06/04 10:55:32;;;;;;;6.47;2.40;;;26.60;99.90;;;;;;5033947;28;20039;-67
2023/06/04 10:58:00;;;;;;;8.13;2.35;;;26.60;99.90;;;;;;5033636;28;20491;-67
2023/06/04 11:03:20;;;;;;;3.20;2.20;;;25.90;99.90;;;;;;5111013;27;20796;-68
2023/06/04 11:05:47;;;;;;;4.68;1.92;;;25.20;99.90;;;;;;5111150;28;20020;-68
2023/06/04 11:08:14;;;;;;;2.40;2.20;;;25.40;99.90;;;;;;5111306;28;20489;-68
2023/06/04 11:10:43;;;;;;;3.17;2.00;;;25.60;99.90;;;;;;5109779;28;20032;-68
2023/06/04 11:13:08;;;;;;;3.70;2.38;;;25.70;99.90;;;;;;5111223;28;20107;-68
2023/06/04 11:15:43;;;;;;;5.63;2.17;;;25.60;99.90;;;;;;5111054;28;20055;-68
2023/06/04 11:18:15;;;;;;;4.97;2.42;;;26.00;99.90;;;;;;5110875;28;20086;-67
2023/06/04 11:20:42;;;;;;;4.25;2.05;;;25.30;99.90;;;;;;5110963;28;20035;-68
2023/06/04 11:23:08;;;;;;;3.53;2.22;;;25.50;99.90;;;;;;5110638;28;20433;-68
2023/06/04 11:25:34;;;;;;;6.35;3.05;;;25.50;99.90;;;;;;5109651;28;20030;-68
2023/06/04 11:28:01;;;;;;;5.45;2.83;;;24.90;99.90;;;;;;5109463;28;20024;-68
2023/06/04 11:30:30;;;;;;;5.90;2.80;;;25.10;99.90;;;;;;5110678;28;20031;-68
2023/06/04 11:33:04;;;;;;;5.20;2.75;;;25.30;99.90;;;;;;5110858;28;20389;-68
2023/06/04 11:35:31;;;;;;;4.20;2.53;;;25.80;99.90;;;;;;5110593;28;20035;-68
2023/06/04 11:37:58;;;;;;;2.47;2.10;;;25.60;99.90;;;;;;5110767;28;20028;-67
2023/06/04 11:40:26;;;;;;;3.42;2.80;;;25.40;99.90;;;;;;5109175;28;20034;-68
2023/06/04 11:42:52;;;;;;;4.88;3.40;;;25.30;99.90;;;;;;5110637;28;20055;-68
2023/06/04 11:45:20;;;;;;;4.30;3.00;;;25.10;99.90;;;;;;5110590;28;20107;-68
2023/06/04 11:47:56;;;;;;;4.53;3.10;;;24.80;99.90;;;;;;5110413;28;20426;-68
2023/06/04 11:50:25;;;;;;;4.30;3.05;;;24.60;99.90;;;;;;5092160;28;20051;-68
2023/06/04 11:52:52;;;;;;;4.28;3.00;;;24.90;99.90;;;;;;5110239;28;20115;-68
2023/06/04 11:55:20;;;;;;;8.30;3.60;;;25.00;99.90;;;;;;5108651;28;20028;-68
2023/06/04 11:57:48;;;;;;;10.73;3.42;;;24.90;99.90;;;;;;5110242;28;20046;-68
2023/06/04 12:00:15;;;;;;;9.05;3.25;;;24.70;99.90;;;;;;5110177;28;20031;-68
2023/06/04 12:02:52;;;;;;;5.90;2.97;;;24.90;99.90;;;;;;5109782;28;20063;-68
2023/06/04 12:05:19;;;;;;;8.30;3.70;;;24.80;99.90;;;;;;5110186;28;20028;-67
2023/06/04 12:07:46;;;;;;;4.90;3.28;;;24.90;99.90;;;;;;5110085;28;20432;-68
2023/06/04 12:10:12;;;;;;;7.72;3.83;;;24.90;99.90;;;;;;5109946;28;20020;-68
2023/06/04 12:12:39;;;;;;;5.80;3.75;;;24.80;99.90;;;;;;5108078;28;20035;-68
2023/06/04 12:15:07;;;;;;;4.88;3.78;;;25.30;99.90;;;;;;5096020;28;20375;-68
2023/06/04 12:17:33;;;;;;;5.63;3.33;;;25.30;99.90;;;;;;5096305;28;20511;-68
2023/06/04 12:19:58;;;;;;;3.70;3.40;;;25.30;99.90;;;;;;5096106;28;20028;-68
2023/06/04 12:22:26;;;;;;;5.72;3.75;;;25.40;99.90;;;;;;5095111;28;20024;-68
2023/06/04 12:24:55;;;;;;;4.78;3.35;;;25.40;99.90;;;;;;5096298;28;20032;-68
2023/06/04 12:27:23;;;;;;;7.70;3.42;;;25.10;99.90;;;;;;5095888;28;20032;-68
2023/06/04 12:32:42;;;;;;;3.80;3.40;;;24.90;99.90;;;;;;5111334;27;20403;-67
2023/06/04 12:35:08;;;;;;;6.65;3.90;;;24.90;99.90;;;;;;5111078;28;20024;-67
2023/06/04 12:37:36;;;;;;;7.20;3.80;;;24.70;99.90;;;;;;5109614;28;20474;-67
2023/06/04 12:40:04;;;;;;;8.05;3.40;;;24.50;99.90;;;;;;5111065;28;20398;-67
2023/06/04 12:42:30;;;;;;;7.13;3.75;;;24.60;99.90;;;;;;5110930;28;20036;-67
2023/06/04 12:44:55;;;;;;;8.40;4.18;;;24.70;99.90;;;;;;5110911;28;20084;-67
2023/06/04 12:47:21;;;;;;;4.80;3.80;;;24.80;99.90;;;;;;5110980;28;20424;-67
2023/06/04 12:49:47;;;;;;;6.80;3.50;;;24.90;99.90;;;;;;5110916;28;20028;-67
2023/06/04 12:52:14;;;;;;;5.68;3.55;;;24.90;99.90;;;;;;5109790;28;20103;-67
2023/06/04 12:54:41;;;;;;;6.25;3.58;;;25.00;99.90;;;;;;5110815;28;20050;-67